createdAt,value
2018-05-09T00:00:32.393Z,65.43
2018-05-09T00:01:32.290Z,66.19
2018-05-09T00:02:32.199Z,66.19
2018-05-09T00:03:32.108Z,65.91
2018-05-09T00:04:32.006Z,65.81
2018-05-09T00:05:31.915Z,65.62
2018-05-09T00:06:31.822Z,66.29
2018-05-09T00:07:31.721Z,65.72
2018-05-09T00:08:31.630Z,66.39
2018-05-09T00:09:31.551Z,66.77
2018-05-09T00:10:31.435Z,66.96
2018-05-09T00:11:31.345Z,67.06
2018-05-09T00:12:31.241Z,66.77
2018-05-09T00:13:31.153Z,67.06
2018-05-09T00:14:31.059Z,67.73
2018-05-09T00:15:30.956Z,67.35
2018-05-09T00:16:30.927Z,66.96
2018-05-09T00:17:30.774Z,66.96
2018-05-09T00:18:30.673Z,66.86
2018-05-09T00:19:30.579Z,67.63
2018-05-09T00:20:30.490Z,67.35
2018-05-09T00:21:30.386Z,67.63
2018-05-09T00:22:30.311Z,67.16
2018-05-09T00:23:30.204Z,66.96
2018-05-09T00:24:30.101Z,66.96
2018-05-09T00:25:30.010Z,66.96
2018-05-09T00:26:29.908Z,67.44
2018-05-09T00:27:29.820Z,67.35
2018-05-09T00:28:30.028Z,67.16
2018-05-09T00:29:29.622Z,67.73
2018-05-09T00:30:29.531Z,67.83
2018-05-09T00:31:29.442Z,67.73
2018-05-09T00:32:29.354Z,68.37
2018-05-09T00:33:29.249Z,68.30
2018-05-09T00:34:29.155Z,68.50
2018-05-09T00:35:29.051Z,68.02
2018-05-09T00:36:28.961Z,68.69
2018-05-09T00:37:28.869Z,68.69
2018-05-09T00:38:29.067Z,68.50
2018-05-09T00:39:28.676Z,68.59
2018-05-09T00:40:28.575Z,68.56
2018-05-09T00:41:28.482Z,68.02
2018-05-09T00:42:28.392Z,68.21
2018-05-09T00:43:28.288Z,68.30
2018-05-09T00:44:28.198Z,68.12
2018-05-09T00:45:28.108Z,68.02
2018-05-09T00:46:28.003Z,68.69
2018-05-09T00:47:27.911Z,68.27
2018-05-09T00:48:27.826Z,68.50
2018-05-09T00:49:27.719Z,68.79
2018-05-09T00:50:27.626Z,68.50
2018-05-09T00:51:27.524Z,68.21
2018-05-09T00:52:27.433Z,68.40
2018-05-09T00:53:27.334Z,68.59
2018-05-09T00:54:27.238Z,68.59
2018-05-09T00:55:27.149Z,68.40
2018-05-09T00:56:27.057Z,68.69
2018-05-09T00:57:26.954Z,68.98
2018-05-09T00:58:27.163Z,69.42
2018-05-09T00:59:26.761Z,68.95
2018-05-09T01:00:26.669Z,69.42
2018-05-09T01:01:26.579Z,69.23
2018-05-09T01:02:26.476Z,69.62
2018-05-09T01:03:26.384Z,69.81
2018-05-09T01:04:26.293Z,69.62
2018-05-09T01:05:26.191Z,69.52
2018-05-09T01:06:26.099Z,69.52
2018-05-09T01:07:26.018Z,69.42
2018-05-09T01:08:25.924Z,69.71
2018-05-09T01:09:25.814Z,69.33
2018-05-09T01:10:25.711Z,69.62
2018-05-09T01:11:25.623Z,69.71
2018-05-09T01:12:25.529Z,70.09
2018-05-09T01:13:25.426Z,69.81
2018-05-09T01:14:25.336Z,69.62
2018-05-09T01:15:25.246Z,70.29
2018-05-09T01:16:25.141Z,70.09
2018-05-09T01:17:25.051Z,70.09
2018-05-09T01:18:25.248Z,70.00
2018-05-09T01:19:24.859Z,69.90
2018-05-09T01:20:24.766Z,70.48
2018-05-09T01:21:24.664Z,70.38
2018-05-09T01:22:24.572Z,70.38
2018-05-09T01:23:24.731Z,70.29
2018-05-09T01:24:24.379Z,70.38
2018-05-09T01:25:24.286Z,70.38
2018-05-09T01:26:24.184Z,70.09
2018-05-09T01:27:24.094Z,70.19
2018-05-09T01:28:24.001Z,70.57
2018-05-09T01:29:23.898Z,70.67
2018-05-09T01:30:23.808Z,70.73
2018-05-09T01:31:23.707Z,71.02
2018-05-09T01:32:23.612Z,71.02
2018-05-09T01:33:23.525Z,71.02
2018-05-09T01:34:23.421Z,71.31
2018-05-09T01:35:23.328Z,71.02
2018-05-09T01:36:23.226Z,71.02
2018-05-09T01:37:23.135Z,71.21
2018-05-09T01:38:23.043Z,70.92
2018-05-09T01:39:22.940Z,70.92
2018-05-09T01:40:22.849Z,71.31
2018-05-09T01:41:22.758Z,70.83
2018-05-09T01:42:22.659Z,71.02
2018-05-09T01:43:22.564Z,71.31
2018-05-09T01:44:22.461Z,71.31
2018-05-09T01:45:22.373Z,71.08
2018-05-09T01:46:22.280Z,71.31
2018-05-09T01:47:22.177Z,71.84
2018-05-09T01:48:22.090Z,70.92
2018-05-09T01:49:21.982Z,71.11
2018-05-09T01:50:21.892Z,71.75
2018-05-09T01:51:21.800Z,70.98
2018-05-09T01:52:21.697Z,71.31
2018-05-09T01:53:21.907Z,71.40
2018-05-09T01:54:21.504Z,71.31
2018-05-09T01:55:21.424Z,71.31
2018-05-09T01:56:21.322Z,71.27
2018-05-09T01:57:21.219Z,71.02
2018-05-09T01:58:21.127Z,71.11
2018-05-09T01:59:21.025Z,71.31
2018-05-09T02:00:20.936Z,70.83
2018-05-09T02:01:20.842Z,70.83
2018-05-09T02:02:20.739Z,71.27
2018-05-09T02:03:20.649Z,71.17
2018-05-09T02:04:20.549Z,71.40
2018-05-09T02:05:20.454Z,71.21
2018-05-09T02:06:20.351Z,71.11
2018-05-09T02:07:20.261Z,71.11
2018-05-09T02:08:20.170Z,71.02
2018-05-09T02:09:20.078Z,71.40
2018-05-09T02:10:19.975Z,70.98
2018-05-09T02:11:19.872Z,70.98
2018-05-09T02:12:19.780Z,71.11
2018-05-09T02:13:19.690Z,71.31
2018-05-09T02:14:19.587Z,70.83
2018-05-09T02:15:19.496Z,71.02
2018-05-09T02:16:19.393Z,71.02
2018-05-09T02:17:19.305Z,71.37
2018-05-09T02:18:19.210Z,71.31
2018-05-09T02:19:19.107Z,70.98
2018-05-09T02:20:19.020Z,71.08
2018-05-09T02:21:18.914Z,71.27
2018-05-09T02:22:18.822Z,71.37
2018-05-09T02:23:18.721Z,71.56
2018-05-09T02:24:18.634Z,71.37
2018-05-09T02:25:18.537Z,71.46
2018-05-09T02:26:18.435Z,71.46
2018-05-09T02:27:18.344Z,71.27
2018-05-09T02:28:18.242Z,71.27
2018-05-09T02:29:18.149Z,71.27
2018-05-09T02:30:18.060Z,71.37
2018-05-09T02:31:18.080Z,71.37
2018-05-09T02:32:17.877Z,71.56
2018-05-09T02:33:17.761Z,71.46
2018-05-09T02:34:17.672Z,71.27
2018-05-09T02:35:17.681Z,71.46
2018-05-09T02:36:17.476Z,71.37
2018-05-09T02:37:17.386Z,71.08
2018-05-09T02:38:17.283Z,71.08
2018-05-09T02:39:17.192Z,71.75
2018-05-09T02:40:17.089Z,71.27
2018-05-09T02:41:17.001Z,71.37
2018-05-09T02:42:16.906Z,70.98
2018-05-09T02:43:17.104Z,71.17
2018-05-09T02:44:16.714Z,71.56
2018-05-09T02:45:16.611Z,71.27
2018-05-09T02:46:16.519Z,71.27
2018-05-09T02:47:16.417Z,71.27
2018-05-09T02:48:16.326Z,71.66
2018-05-09T02:49:16.237Z,71.17
2018-05-09T02:50:16.131Z,71.46
2018-05-09T02:51:16.041Z,71.37
2018-05-09T02:52:15.937Z,71.56
2018-05-09T02:53:15.848Z,71.27
2018-05-09T02:54:15.751Z,71.17
2018-05-09T02:55:15.655Z,71.27
2018-05-09T02:56:15.564Z,71.27
2018-05-09T02:57:15.463Z,71.56
2018-05-09T02:58:15.368Z,71.08
2018-05-09T02:59:15.264Z,71.46
2018-05-09T03:00:15.173Z,71.37
2018-05-09T03:01:15.070Z,71.84
2018-05-09T03:02:14.999Z,71.37
2018-05-09T03:03:14.888Z,71.56
2018-05-09T03:04:14.790Z,71.37
2018-05-09T03:05:14.697Z,71.56
2018-05-09T03:06:14.590Z,71.27
2018-05-09T03:07:14.499Z,71.27
2018-05-09T03:08:14.401Z,71.75
2018-05-09T03:09:14.306Z,71.08
2018-05-09T03:10:14.202Z,71.14
2018-05-09T03:11:14.111Z,71.04
2018-05-09T03:12:14.020Z,71.84
2018-05-09T03:13:13.917Z,71.42
2018-05-09T03:14:13.825Z,71.27
2018-05-09T03:15:13.721Z,71.66
2018-05-09T03:16:13.632Z,71.62
2018-05-09T03:17:13.529Z,71.46
2018-05-09T03:18:13.437Z,71.42
2018-05-09T03:19:13.335Z,71.52
2018-05-09T03:20:13.247Z,71.23
2018-05-09T03:21:13.151Z,71.04
2018-05-09T03:22:13.049Z,71.27
2018-05-09T03:23:13.208Z,70.95
2018-05-09T03:24:12.855Z,71.33
2018-05-09T03:25:12.763Z,71.04
2018-05-09T03:26:12.660Z,71.04
2018-05-09T03:27:12.571Z,71.14
2018-05-09T03:28:12.777Z,71.33
2018-05-09T03:29:12.388Z,70.95
2018-05-09T03:30:12.285Z,71.52
2018-05-09T03:31:12.183Z,71.23
2018-05-09T03:32:12.090Z,71.04
2018-05-09T03:33:11.988Z,71.23
2018-05-09T03:34:11.898Z,71.33
2018-05-09T03:35:11.793Z,71.14
2018-05-09T03:36:11.702Z,70.95
2018-05-09T03:37:11.601Z,71.04
2018-05-09T03:38:11.509Z,70.85
2018-05-09T03:39:11.417Z,71.17
2018-05-09T03:40:11.314Z,71.17
2018-05-09T03:41:11.223Z,71.17
2018-05-09T03:42:11.120Z,71.04
2018-05-09T03:43:11.043Z,71.04
2018-05-09T03:44:10.926Z,71.37
2018-05-09T03:45:10.839Z,71.17
2018-05-09T03:46:10.732Z,71.17
2018-05-09T03:47:10.641Z,71.56
2018-05-09T03:48:10.850Z,71.27
2018-05-09T03:49:10.447Z,71.27
2018-05-09T03:50:10.355Z,71.08
2018-05-09T03:51:10.252Z,71.17
2018-05-09T03:52:10.166Z,70.89
2018-05-09T03:53:10.059Z,71.27
2018-05-09T03:54:09.969Z,71.37
2018-05-09T03:55:09.864Z,71.08
2018-05-09T03:56:09.774Z,71.27
2018-05-09T03:57:09.682Z,71.27
2018-05-09T03:58:09.579Z,71.37
2018-05-09T03:59:09.489Z,70.79
2018-05-09T04:00:09.386Z,71.37
2018-05-09T04:01:09.294Z,71.37
2018-05-09T04:02:09.191Z,71.27
2018-05-09T04:03:09.101Z,71.37
2018-05-09T04:04:09.009Z,71.37
2018-05-09T04:05:08.906Z,71.08
2018-05-09T04:06:08.817Z,71.17
2018-05-09T04:07:08.714Z,71.37
2018-05-09T04:08:08.636Z,71.08
2018-05-09T04:09:08.518Z,71.37
2018-05-09T04:10:08.428Z,71.21
2018-05-09T04:11:08.337Z,71.17
2018-05-09T04:12:08.233Z,71.21
2018-05-09T04:13:08.224Z,71.56
2018-05-09T04:14:08.040Z,71.17
2018-05-09T04:15:07.948Z,71.59
2018-05-09T04:16:07.845Z,71.21
2018-05-09T04:17:07.755Z,71.11
2018-05-09T04:18:07.663Z,71.59
2018-05-09T04:19:07.560Z,71.69
2018-05-09T04:20:07.470Z,71.50
2018-05-09T04:21:07.371Z,71.02
2018-05-09T04:22:07.276Z,71.11
2018-05-09T04:23:07.184Z,71.21
2018-05-09T04:24:07.082Z,71.44
2018-05-09T04:25:06.990Z,71.31
2018-05-09T04:26:06.887Z,71.44
2018-05-09T04:27:06.796Z,71.63
2018-05-09T04:28:07.041Z,71.57
2018-05-09T04:29:06.602Z,71.37
2018-05-09T04:30:06.512Z,71.19
2018-05-09T04:31:06.413Z,71.22
2018-05-09T04:32:06.317Z,70.55
2018-05-09T04:33:06.227Z,70.49
2018-05-09T04:34:06.124Z,70.87
2018-05-09T04:35:06.032Z,70.84
2018-05-09T04:36:05.941Z,70.68
2018-05-09T04:37:05.840Z,70.97
2018-05-09T04:38:05.747Z,70.39
2018-05-09T04:39:05.658Z,70.39
2018-05-09T04:40:05.566Z,70.52
2018-05-09T04:41:05.475Z,70.33
2018-05-09T04:42:05.384Z,69.75
2018-05-09T04:43:05.281Z,70.14
2018-05-09T04:44:05.177Z,69.75
2018-05-09T04:45:05.088Z,70.43
2018-05-09T04:46:04.995Z,69.89
2018-05-09T04:47:04.905Z,69.31
2018-05-09T04:48:05.051Z,69.21
2018-05-09T04:49:04.710Z,69.02
2018-05-09T04:50:04.624Z,69.50
2018-05-09T04:51:04.528Z,69.12
2018-05-09T04:52:04.429Z,68.86
2018-05-09T04:53:04.335Z,68.38
2018-05-09T04:54:04.243Z,67.99
2018-05-09T04:55:04.156Z,68.51
2018-05-09T04:56:04.061Z,67.90
2018-05-09T04:57:03.959Z,67.93
2018-05-09T04:58:04.168Z,67.93
2018-05-09T04:59:03.776Z,67.45
2018-05-09T05:00:03.686Z,67.22
2018-05-09T05:01:03.595Z,68.19
2018-05-09T05:02:03.510Z,68.86
2018-05-09T05:03:03.401Z,67.99
2018-05-09T05:04:03.323Z,68.41
2018-05-09T05:05:03.220Z,68.22
2018-05-09T05:06:03.128Z,67.35
2018-05-09T05:07:03.071Z,67.26
2018-05-09T05:08:02.959Z,66.97
2018-05-09T05:09:02.856Z,67.07
2018-05-09T05:10:02.771Z,66.49
2018-05-09T05:11:02.662Z,65.94
2018-05-09T05:12:02.574Z,65.24
2018-05-09T05:13:02.479Z,65.66
2018-05-09T05:14:02.390Z,64.98
2018-05-09T05:15:02.298Z,64.79
2018-05-09T05:16:02.208Z,64.43
2018-05-09T05:17:02.116Z,64.92
2018-05-09T05:18:02.027Z,63.57
2018-05-09T05:19:01.935Z,63.57
2018-05-09T05:20:01.845Z,63.09
2018-05-09T05:21:01.756Z,62.93
2018-05-09T05:22:01.665Z,62.06
2018-05-09T05:23:01.825Z,62.83
2018-05-09T05:24:01.484Z,62.54
2018-05-09T05:25:01.390Z,62.15
2018-05-09T05:26:01.287Z,61.10
2018-05-09T05:27:01.207Z,61.38
2018-05-09T05:28:01.110Z,61.48
2018-05-09T05:29:01.016Z,61.38
2018-05-09T05:30:00.924Z,62.70
2018-05-09T05:31:00.833Z,62.70
2018-05-09T05:32:00.743Z,62.63
2018-05-09T05:33:00.652Z,60.83
2018-05-09T05:34:00.562Z,60.32
2018-05-09T05:35:00.471Z,59.71
2018-05-09T05:36:00.380Z,59.48
2018-05-09T05:37:00.302Z,59.25
2018-05-09T05:38:00.198Z,57.62
2018-05-09T05:39:00.121Z,57.81
2018-05-09T05:40:00.028Z,56.48
2018-05-09T05:40:59.937Z,56.65
2018-05-09T05:41:59.850Z,57.04
2018-05-09T05:43:00.006Z,57.04
2018-05-09T05:43:59.666Z,56.84
2018-05-09T05:44:59.593Z,56.84
2018-05-09T05:45:59.483Z,57.14
2018-05-09T05:46:59.392Z,55.90
2018-05-09T05:47:59.305Z,55.10
2018-05-09T05:48:59.210Z,56.48
2018-05-09T05:49:59.121Z,55.13
2018-05-09T05:50:59.031Z,55.13
2018-05-09T05:51:59.007Z,53.61
2018-05-09T05:52:58.861Z,53.49
2018-05-09T05:53:58.769Z,55.30
2018-05-09T05:54:58.679Z,56.16
2018-05-09T05:55:58.669Z,56.52
2018-05-09T05:56:58.498Z,56.16
2018-05-09T05:57:58.407Z,55.52
2018-05-09T05:58:58.328Z,54.65
2018-05-09T05:59:58.239Z,54.49
2018-05-09T06:00:58.150Z,53.06
2018-05-09T06:01:58.057Z,51.35
2018-05-09T06:02:58.215Z,51.78
2018-05-09T06:03:57.900Z,53.85
2018-05-09T06:04:57.797Z,53.97
2018-05-09T06:05:57.704Z,53.97
2018-05-09T06:06:57.615Z,53.42
2018-05-09T06:07:57.560Z,52.75
2018-05-09T06:08:57.434Z,53.69
2018-05-09T06:09:57.342Z,53.56
2018-05-09T06:10:57.263Z,54.43
2018-05-09T06:11:57.174Z,54.36
2018-05-09T06:12:57.082Z,53.42
2018-05-09T06:13:56.992Z,52.92
2018-05-09T06:14:56.905Z,50.21
2018-05-09T06:15:56.822Z,50.28
2018-05-09T06:16:56.738Z,50.76
2018-05-09T06:17:56.644Z,50.79
2018-05-09T06:18:56.550Z,50.38
2018-05-09T06:19:56.459Z,50.96
2018-05-09T06:20:56.381Z,50.09
2018-05-09T06:21:56.291Z,50.50
2018-05-09T06:22:56.201Z,50.24
2018-05-09T06:23:56.164Z,48.30
2018-05-09T06:24:56.031Z,48.22
2018-05-09T06:25:55.940Z,47.86
2018-05-09T06:26:55.850Z,47.94
2018-05-09T06:27:55.758Z,48.69
2018-05-09T06:28:55.679Z,48.32
2018-05-09T06:29:55.590Z,47.91
2018-05-09T06:30:55.510Z,48.20
2018-05-09T06:31:55.418Z,48.32
2018-05-09T06:32:55.329Z,47.94
2018-05-09T06:33:55.241Z,47.98
2018-05-09T06:34:55.147Z,46.53
2018-05-09T06:35:55.069Z,46.60
2018-05-09T06:36:54.977Z,46.82
2018-05-09T06:37:54.888Z,46.70
2018-05-09T06:38:54.809Z,46.51
2018-05-09T06:39:54.719Z,46.99
2018-05-09T06:40:54.627Z,47.36
2018-05-09T06:41:54.550Z,46.72
2018-05-09T06:42:54.457Z,46.60
2018-05-09T06:43:54.368Z,46.26
2018-05-09T06:44:54.288Z,44.98
2018-05-09T06:45:54.198Z,46.41
2018-05-09T06:46:54.108Z,46.22
2018-05-09T06:47:54.030Z,46.14
2018-05-09T06:48:53.937Z,46.43
2018-05-09T06:49:53.864Z,45.34
2018-05-09T06:50:53.780Z,46.77
2018-05-09T06:51:53.677Z,47.94
2018-05-09T06:52:53.600Z,47.55
2018-05-09T06:53:53.517Z,46.97
2018-05-09T06:54:53.430Z,47.67
2018-05-09T06:55:53.343Z,46.24
2018-05-09T06:56:53.250Z,46.45
2018-05-09T06:57:53.171Z,45.56
2018-05-09T06:58:53.083Z,46.33
2018-05-09T06:59:53.029Z,46.12
2018-05-09T07:00:52.910Z,46.31
2018-05-09T07:01:52.833Z,46.92
2018-05-09T07:02:52.741Z,46.82
2018-05-09T07:03:52.650Z,46.39
2018-05-09T07:04:52.573Z,46.62
2018-05-09T07:05:52.481Z,45.07
2018-05-09T07:06:52.390Z,46.41
2018-05-09T07:07:52.312Z,46.31
2018-05-09T07:08:52.221Z,46.82
2018-05-09T07:09:52.143Z,45.65
2018-05-09T07:10:52.052Z,45.75
2018-05-09T07:11:51.973Z,46.22
2018-05-09T07:12:52.132Z,45.80
2018-05-09T07:13:51.792Z,44.34
2018-05-09T07:14:51.715Z,44.44
2018-05-09T07:15:51.622Z,44.73
2018-05-09T07:16:51.545Z,43.80
2018-05-09T07:17:51.455Z,42.56
2018-05-09T07:18:51.377Z,42.19
2018-05-09T07:19:51.284Z,41.59
2018-05-09T07:20:51.206Z,41.88
2018-05-09T07:21:51.116Z,41.96
2018-05-09T07:22:51.025Z,42.54
2018-05-09T07:23:50.947Z,42.43
2018-05-09T07:24:50.857Z,42.81
2018-05-09T07:25:50.777Z,42.91
2018-05-09T07:26:50.687Z,43.76
2018-05-09T07:27:50.608Z,44.90
2018-05-09T07:28:50.533Z,45.00
2018-05-09T07:29:50.440Z,45.21
2018-05-09T07:30:50.354Z,44.83
2018-05-09T07:31:50.270Z,44.32
2018-05-09T07:32:50.180Z,44.68
2018-05-09T07:33:50.101Z,45.37
2018-05-09T07:34:50.009Z,45.00
2018-05-09T07:35:49.931Z,45.29
2018-05-09T07:36:49.841Z,44.98
2018-05-09T07:37:49.763Z,45.58
2018-05-09T07:38:49.671Z,45.21
2018-05-09T07:39:49.593Z,44.09
2018-05-09T07:40:49.503Z,42.95
2018-05-09T07:41:49.425Z,42.71
2018-05-09T07:42:49.334Z,44.07
2018-05-09T07:43:49.257Z,43.41
2018-05-09T07:44:49.165Z,42.93
2018-05-09T07:45:49.073Z,42.71
2018-05-09T07:46:49.000Z,43.37
2018-05-09T07:47:48.946Z,44.64
2018-05-09T07:48:48.826Z,44.34
2018-05-09T07:49:48.735Z,45.48
2018-05-09T07:50:48.645Z,44.92
2018-05-09T07:51:48.567Z,44.92
2018-05-09T07:52:48.475Z,44.83
2018-05-09T07:53:48.385Z,45.56
2018-05-09T07:54:48.310Z,47.19
2018-05-09T07:55:48.215Z,48.20
2018-05-09T07:56:48.125Z,50.14
2018-05-09T07:57:48.034Z,50.31
2018-05-09T07:58:47.956Z,50.12
2018-05-09T07:59:47.865Z,51.64
2018-05-09T08:00:47.773Z,52.19
2018-05-09T08:01:47.683Z,53.16
2018-05-09T08:02:47.593Z,53.74
2018-05-09T08:03:47.516Z,54.13
2018-05-09T08:04:47.425Z,54.13
2018-05-09T08:05:47.331Z,54.58
2018-05-09T08:06:47.248Z,54.39
2018-05-09T08:07:47.150Z,54.19
2018-05-09T08:08:47.071Z,54.97
2018-05-09T08:09:46.983Z,56.05
2018-05-09T08:10:46.892Z,54.90
2018-05-09T08:11:46.800Z,54.80
2018-05-09T08:12:46.779Z,54.71
2018-05-09T08:13:46.619Z,55.31
2018-05-09T08:14:46.527Z,54.15
2018-05-09T08:15:46.438Z,54.93
2018-05-09T08:16:46.348Z,54.57
2018-05-09T08:17:46.287Z,53.50
2018-05-09T08:18:46.178Z,53.99
2018-05-09T08:19:46.086Z,52.63
2018-05-09T08:20:45.996Z,53.69
2018-05-09T08:21:45.904Z,53.50
2018-05-09T08:22:45.819Z,52.92
2018-05-09T08:23:45.736Z,53.43
2018-05-09T08:24:45.633Z,52.75
2018-05-09T08:25:45.548Z,52.34
2018-05-09T08:26:45.463Z,52.05
2018-05-09T08:27:45.372Z,51.98
2018-05-09T08:28:45.281Z,51.86
2018-05-09T08:29:45.191Z,51.66
2018-05-09T08:30:45.100Z,51.47
2018-05-09T08:31:45.010Z,51.76
2018-05-09T08:32:44.943Z,51.66
2018-05-09T08:33:44.839Z,50.43
2018-05-09T08:34:44.743Z,49.65
2018-05-09T08:35:44.659Z,49.97
2018-05-09T08:36:44.627Z,48.61
2018-05-09T08:37:44.476Z,48.61
2018-05-09T08:38:44.387Z,48.15
2018-05-09T08:39:44.295Z,47.20
2018-05-09T08:40:44.205Z,46.36
2018-05-09T08:41:44.113Z,45.72
2018-05-09T08:42:44.023Z,44.46
2018-05-09T08:43:44.032Z,43.78
2018-05-09T08:44:43.842Z,44.00
2018-05-09T08:45:43.750Z,42.81
2018-05-09T08:46:43.665Z,42.74
2018-05-09T08:47:43.572Z,42.46
2018-05-09T08:48:43.479Z,42.58
2018-05-09T08:49:43.389Z,41.63
2018-05-09T08:50:43.303Z,40.99
2018-05-09T08:51:43.219Z,39.96
2018-05-09T08:52:43.127Z,38.42
2018-05-09T08:53:43.039Z,38.87
2018-05-09T08:54:42.946Z,38.96
2018-05-09T08:55:42.855Z,39.12
2018-05-09T08:56:42.765Z,40.29
2018-05-09T08:57:42.979Z,40.83
2018-05-09T08:58:42.595Z,41.34
2018-05-09T08:59:42.510Z,41.13
2018-05-09T09:00:42.416Z,40.37
2018-05-09T09:01:42.323Z,39.80
2018-05-09T09:02:42.244Z,39.53
2018-05-09T09:03:42.155Z,39.70
2018-05-09T09:04:42.077Z,39.43
2018-05-09T09:05:41.987Z,38.30
2018-05-09T09:06:41.894Z,38.40
2018-05-09T09:07:41.816Z,37.75
2018-05-09T09:08:41.724Z,36.82
2018-05-09T09:09:41.645Z,35.95
2018-05-09T09:10:41.556Z,36.39
2018-05-09T09:11:41.477Z,37.35
2018-05-09T09:12:41.394Z,37.05
2018-05-09T09:13:41.307Z,36.84
2018-05-09T09:14:41.229Z,37.13
2018-05-09T09:15:41.169Z,37.13
2018-05-09T09:16:41.060Z,37.52
2018-05-09T09:17:41.221Z,36.88
2018-05-09T09:18:40.952Z,35.80
2018-05-09T09:19:40.813Z,36.65
2018-05-09T09:20:40.735Z,37.23
2018-05-09T09:21:40.644Z,36.74
2018-05-09T09:22:40.565Z,37.13
2018-05-09T09:23:40.488Z,36.96
2018-05-09T09:24:40.397Z,35.90
2018-05-09T09:25:40.317Z,36.29
2018-05-09T09:26:40.239Z,36.27
2018-05-09T09:27:40.161Z,35.92
2018-05-09T09:28:40.071Z,35.20
2018-05-09T09:29:39.993Z,35.38
2018-05-09T09:30:39.915Z,35.31
2018-05-09T09:31:39.838Z,34.63
2018-05-09T09:32:39.761Z,34.24
2018-05-09T09:33:39.665Z,34.69
2018-05-09T09:34:39.589Z,35.59
2018-05-09T09:35:39.509Z,35.12
2018-05-09T09:36:39.431Z,35.00
2018-05-09T09:37:39.353Z,34.84
2018-05-09T09:38:39.263Z,34.14
2018-05-09T09:39:39.185Z,34.53
2018-05-09T09:40:39.109Z,33.34
2018-05-09T09:41:39.033Z,33.64
2018-05-09T09:42:38.950Z,33.73
2018-05-09T09:43:38.871Z,34.31
2018-05-09T09:44:38.782Z,34.31
2018-05-09T09:45:38.702Z,35.06
2018-05-09T09:46:38.624Z,35.08
2018-05-09T09:47:38.544Z,34.59
2018-05-09T09:48:38.470Z,34.31
2018-05-09T09:49:38.388Z,34.42
2018-05-09T09:50:38.303Z,33.38
2018-05-09T09:51:38.221Z,32.32
2018-05-09T09:52:38.145Z,31.92
2018-05-09T09:53:38.070Z,31.65
2018-05-09T09:54:37.984Z,30.97
2018-05-09T09:55:37.907Z,31.15
2018-05-09T09:56:37.832Z,30.84
2018-05-09T09:57:37.738Z,32.26
2018-05-09T09:58:37.659Z,32.92
2018-05-09T09:59:37.584Z,33.23
2018-05-09T10:00:37.506Z,32.68
2018-05-09T10:01:37.436Z,31.72
2018-05-09T10:02:37.345Z,31.92
2018-05-09T10:03:37.269Z,31.70
2018-05-09T10:04:37.188Z,31.01
2018-05-09T10:05:37.110Z,31.69
2018-05-09T10:06:37.032Z,32.39
2018-05-09T10:07:36.942Z,32.26
2018-05-09T10:08:36.863Z,32.65
2018-05-09T10:09:36.786Z,32.63
2018-05-09T10:10:36.708Z,32.15
2018-05-09T10:11:36.628Z,32.15
2018-05-09T10:12:36.550Z,31.46
2018-05-09T10:13:36.472Z,31.56
2018-05-09T10:14:36.394Z,32.34
2018-05-09T10:15:36.321Z,31.02
2018-05-09T10:16:36.237Z,30.44
2018-05-09T10:17:36.146Z,30.55
2018-05-09T10:18:36.070Z,30.54
2018-05-09T10:19:35.989Z,30.70
2018-05-09T10:20:35.923Z,32.05
2018-05-09T10:21:35.835Z,31.67
2018-05-09T10:22:35.754Z,31.10
2018-05-09T10:23:35.675Z,30.42
2018-05-09T10:24:35.596Z,30.31
2018-05-09T10:25:35.519Z,30.15
2018-05-09T10:26:35.440Z,29.60
2018-05-09T10:27:35.362Z,29.47
2018-05-09T10:28:35.283Z,30.16
2018-05-09T10:29:35.217Z,30.73
2018-05-09T10:30:35.127Z,31.09
2018-05-09T10:31:35.110Z,32.06
2018-05-09T10:32:34.970Z,31.56
2018-05-09T10:33:34.892Z,31.69
2018-05-09T10:34:34.814Z,31.13
2018-05-09T10:35:34.735Z,30.16
2018-05-09T10:36:34.657Z,30.03
2018-05-09T10:37:34.829Z,30.71
2018-05-09T10:38:34.514Z,30.81
2018-05-09T10:39:34.422Z,31.10
2018-05-09T10:40:34.343Z,30.45
2018-05-09T10:41:34.265Z,29.98
2018-05-09T10:42:34.187Z,29.32
2018-05-09T10:43:34.113Z,28.91
2018-05-09T10:44:34.031Z,29.96
2018-05-09T10:45:33.952Z,29.69
2018-05-09T10:46:33.873Z,29.21
2018-05-09T10:47:33.880Z,29.04
2018-05-09T10:48:33.720Z,28.28
2018-05-09T10:49:33.638Z,27.20
2018-05-09T10:50:33.561Z,27.97
2018-05-09T10:51:33.484Z,27.98
2018-05-09T10:52:33.404Z,27.29
2018-05-09T10:53:33.330Z,27.69
2018-05-09T10:54:33.248Z,28.15
2018-05-09T10:55:33.171Z,28.36
2018-05-09T10:56:33.111Z,27.19
2018-05-09T10:57:33.026Z,28.16
2018-05-09T10:58:32.947Z,28.82
2018-05-09T10:59:32.869Z,29.21
2018-05-09T11:00:32.791Z,29.69
2018-05-09T11:01:32.712Z,29.67
2018-05-09T11:02:32.634Z,29.69
2018-05-09T11:03:32.556Z,29.90
2018-05-09T11:04:32.477Z,29.03
2018-05-09T11:05:32.399Z,29.52
2018-05-09T11:06:32.320Z,29.14
2018-05-09T11:07:32.245Z,28.75
2018-05-09T11:08:32.164Z,29.50
2018-05-09T11:09:32.098Z,29.88
2018-05-09T11:10:32.091Z,29.21
2018-05-09T11:11:31.929Z,29.41
2018-05-09T11:12:31.850Z,29.60
2018-05-09T11:13:31.764Z,29.91
2018-05-09T11:14:31.682Z,29.90
2018-05-09T11:15:31.604Z,31.01
2018-05-09T11:16:31.525Z,32.63
2018-05-09T11:17:31.452Z,33.69
2018-05-09T11:18:31.368Z,32.55
2018-05-09T11:19:31.301Z,32.65
2018-05-09T11:20:31.211Z,32.26
2018-05-09T11:21:31.132Z,32.08
2018-05-09T11:22:31.053Z,32.24
2018-05-09T11:23:30.975Z,31.92
2018-05-09T11:24:31.001Z,33.48
2018-05-09T11:25:30.824Z,33.75
2018-05-09T11:26:30.728Z,33.65
2018-05-09T11:27:30.653Z,34.33
2018-05-09T11:28:30.572Z,35.31
2018-05-09T11:29:30.494Z,33.34
2018-05-09T11:30:30.416Z,33.62
2018-05-09T11:31:30.324Z,33.62
2018-05-09T11:32:30.259Z,34.77
2018-05-09T11:33:30.169Z,35.06
2018-05-09T11:34:30.078Z,34.38
2018-05-09T11:35:29.999Z,34.67
2018-05-09T11:36:29.921Z,33.88
2018-05-09T11:37:30.153Z,34.36
2018-05-09T11:38:29.750Z,34.66
2018-05-09T11:39:29.661Z,34.95
2018-05-09T11:40:29.584Z,34.95
2018-05-09T11:41:29.492Z,34.27
2018-05-09T11:42:29.413Z,34.27
2018-05-09T11:43:29.323Z,34.87
2018-05-09T11:44:29.245Z,34.77
2018-05-09T11:45:29.152Z,34.19
2018-05-09T11:46:29.074Z,34.09
2018-05-09T11:47:28.985Z,34.59
2018-05-09T11:48:28.907Z,34.79
2018-05-09T11:49:28.815Z,34.67
2018-05-09T11:50:28.726Z,34.97
2018-05-09T11:51:28.646Z,35.84
2018-05-09T11:52:28.558Z,35.96
2018-05-09T11:53:28.465Z,36.55
2018-05-09T11:54:28.387Z,36.46
2018-05-09T11:55:28.295Z,36.26
2018-05-09T11:56:28.222Z,35.60
2018-05-09T11:57:28.126Z,36.00
2018-05-09T11:58:28.035Z,35.81
2018-05-09T11:59:27.957Z,35.05
2018-05-09T12:00:27.869Z,35.23
2018-05-09T12:01:27.789Z,35.71
2018-05-09T12:02:27.709Z,34.95
2018-05-09T12:03:27.607Z,34.66
2018-05-09T12:04:27.528Z,35.63
2018-05-09T12:05:27.437Z,35.42
2018-05-09T12:06:27.358Z,36.49
2018-05-09T12:07:27.269Z,36.40
2018-05-09T12:08:27.179Z,36.77
2018-05-09T12:09:27.099Z,37.45
2018-05-09T12:10:27.034Z,37.54
2018-05-09T12:11:26.931Z,37.52
2018-05-09T12:12:26.839Z,37.92
2018-05-09T12:13:26.760Z,37.93
2018-05-09T12:14:26.672Z,38.01
2018-05-09T12:15:26.593Z,38.60
2018-05-09T12:16:26.506Z,38.31
2018-05-09T12:17:26.414Z,38.40
2018-05-09T12:18:26.332Z,38.70
2018-05-09T12:19:26.245Z,38.57
2018-05-09T12:20:26.161Z,38.67
2018-05-09T12:21:26.073Z,38.87
2018-05-09T12:22:25.982Z,39.08
2018-05-09T12:23:25.902Z,38.89
2018-05-09T12:24:25.812Z,38.70
2018-05-09T12:25:25.723Z,39.20
2018-05-09T12:26:25.642Z,38.71
2018-05-09T12:27:25.552Z,37.76
2018-05-09T12:28:25.473Z,37.66
2018-05-09T12:29:25.392Z,38.24
2018-05-09T12:30:25.298Z,38.83
2018-05-09T12:31:25.218Z,38.44
2018-05-09T12:32:25.122Z,38.64
2018-05-09T12:33:25.049Z,38.32
2018-05-09T12:34:24.979Z,38.62
2018-05-09T12:35:24.864Z,38.95
2018-05-09T12:36:24.798Z,37.48
2018-05-09T12:37:24.946Z,37.58
2018-05-09T12:38:24.616Z,37.12
2018-05-09T12:39:24.524Z,37.19
2018-05-09T12:40:24.445Z,37.77
2018-05-09T12:41:24.356Z,38.05
2018-05-09T12:42:24.282Z,38.56
2018-05-09T12:43:24.186Z,37.76
2018-05-09T12:44:24.096Z,38.52
2018-05-09T12:45:24.017Z,39.00
2018-05-09T12:46:23.926Z,38.64
2018-05-09T12:47:23.836Z,38.15
2018-05-09T12:48:23.758Z,37.97
2018-05-09T12:49:23.670Z,37.76
2018-05-09T12:50:23.588Z,37.27
2018-05-09T12:51:23.499Z,37.58